Lake George, Wisconsin
Current Conditions -  °F | °C
As of 3:53 PM on Sunday 25 Jan 2015 (Local Time) from KRHI Reporting Station
Overcast Overcast  
Wind Chill: 12°   Ceiling: 11000
Heat Index: 19°   Visibility: 10mi
Dew Point:   Wind: 5mph
Humidity: 54%   Direction: 70°ENE
Pressure: 29.99"   Gusts: NA
Location:  45.6521°N, 89.3386°W
Report Text: KRHI 252153Z AUTO 07004KT 10SM OVC110 M07/M15 A2999 RMK AO2 SLP186 T10721150
Loading
Personal Weather Stations






























Interactive Weather Map New forecast layout! Learn more

10-Day Weather Forecast

Advertisements
Track Severe Weather on mobile